Time;durP1;ratioP1;P1;durP2;ratioP2;P2;SDS_P1;SDS_P2;PMS_P1;PMS_P2;Temp;Humidity;BMP_temperature;BMP_pressure;BME280_temperature;BME280_humidity;BME280_pressure;Samples;Min_cycle;Max_cycle;Signal;HPM_P1;HPM_P2
2022/06/08 00:01:44;;;;;;;;;;;;;;;;;;;;;
2022/06/08 00:04:16;;;;;;;13.30;8.70;;;16.50;1.00;;;;;;6300225;22;20483;-80
2022/06/08 00:12:41;;;;;;;;;;;;;;;;;;;;;
2022/06/08 00:15:20;;;;;;;14.33;8.33;;;16.60;1.00;;;;;;6309189;22;20532;-80
2022/06/08 00:18:13;;;;;;;;;;;;;;;;;;;;;
2022/06/08 00:21:09;;;;;;;;;;;;;;;;;;;;;
2022/06/08 00:30:05;;;;;;;;;;;;;;;;;;;;;
2022/06/08 00:35:42;;;;;;;;;;;;;;;;;;;;;
2022/06/08 00:41:52;;;;;;;12.67;8.00;;;16.80;1.00;;;;;;6257865;22;20381;-83
2022/06/08 00:44:46;;;;;;;;;;;;;;;;;;;;;
2022/06/08 00:47:31;;;;;;;13.30;8.30;;;16.70;1.00;;;;;;6279173;22;20469;-82
2022/06/08 00:50:22;;;;;;;12.03;8.37;;;16.70;1.00;;;;;;6252853;22;20374;-82
2022/06/08 00:53:02;;;;;;;14.87;8.53;;;16.70;1.00;;;;;;6251136;22;20779;-82
2022/06/08 00:55:59;;;;;;;;;;;;;;;;;;;;;
2022/06/08 00:59:03;;;;;;;;;;;;;;;;;;;;;
2022/06/08 01:01:43;;;;;;;10.33;7.50;;;16.60;1.00;;;;;;6279219;22;20444;-82
2022/06/08 01:04:33;;;;;;;13.47;8.20;;;16.50;1.00;;;;;;6252651;22;20385;-82
2022/06/08 01:07:37;;;;;;;9.60;7.90;;;16.40;1.00;;;;;;6251922;22;20503;-82
2022/06/08 01:10:47;;;;;;;;;;;;;;;;;;;;;
2022/06/08 01:16:38;;;;;;;13.17;7.87;;;16.30;1.00;;;;;;6268689;22;20390;-82
2022/06/08 01:19:22;;;;;;;10.60;6.50;;;16.30;1.00;;;;;;6264540;22;20399;-83
2022/06/08 01:22:25;;;;;;;;;;;;;;;;;;;;;
2022/06/08 01:25:03;;;;;;;;;;;;;;;;;;;;;
2022/06/08 01:28:23;;;;;;;9.47;8.30;;;16.10;1.00;;;;;;6309548;22;20438;-82
2022/06/08 01:31:52;;;;;;;14.50;6.33;;;16.10;1.00;;;;;;6202361;22;20437;-81
2022/06/08 01:37:49;;;;;;;11.90;6.50;;;16.00;1.00;;;;;;6292798;22;20706;-82
2022/06/08 01:40:44;;;;;;;13.97;6.63;;;15.90;1.00;;;;;;6264550;22;20386;-81
2022/06/08 01:43:54;;;;;;;7.87;5.80;;;15.80;1.00;;;;;;6282624;22;20937;-82
2022/06/08 01:46:50;;;;;;;6.70;5.63;;;15.80;1.00;;;;;;6282646;22;20455;-83
2022/06/08 01:49:34;;;;;;;8.30;5.47;;;15.80;1.00;;;;;;6266513;22;20393;-83
2022/06/08 01:58:23;;;;;;;7.70;5.13;;;15.70;1.00;;;;;;6249481;22;20445;-83
2022/06/08 02:01:16;;;;;;;6.03;4.33;;;15.60;1.00;;;;;;6104639;23;20409;-82
2022/06/08 02:04:29;;;;;;;4.73;4.27;;;15.60;1.00;;;;;;6247671;23;20438;-82
2022/06/08 02:07:43;;;;;;;;;;;;;;;;;;;;;
2022/06/08 02:10:47;;;;;;;;;;;;;;;;;;;;;
2022/06/08 02:17:42;;;;;;;;;;;;;;;;;;;;;
2022/06/08 02:20:35;;;;;;;5.83;5.20;;;15.60;1.00;;;;;;6023150;23;20569;-81
2022/06/08 02:23:30;;;;;;;4.93;4.50;;;15.60;1.00;;;;;;6191092;23;20404;-82
2022/06/08 02:26:15;;;;;;;;;;;;;;;;;;;;;
2022/06/08 02:29:23;;;;;;;7.83;5.47;;;15.50;1.00;;;;;;6217314;23;20935;-83
2022/06/08 02:35:49;;;;;;;;;;;;;;;;;;;;;
2022/06/08 02:41:40;;;;;;;;;;;;;;;;;;;;;
2022/06/08 02:44:42;;;;;;;7.37;4.70;;;15.30;1.00;;;;;;6217034;23;20465;-81
2022/06/08 02:47:29;;;;;;;;;;;;;;;;;;;;;
2022/06/08 02:53:26;;;;;;;10.97;5.33;;;15.20;1.00;;;;;;6171165;23;20472;-82
2022/06/08 03:02:34;;;;;;;;;;;;;;;;;;;;;
2022/06/08 03:05:28;;;;;;;;;;;;;;;;;;;;;
2022/06/08 03:11:45;;;;;;;;;;;;;;;;;;;;;
2022/06/08 03:14:52;;;;;;;;;;;;;;;;;;;;;
2022/06/08 03:17:59;;;;;;;;;;;;;;;;;;;;;
2022/06/08 03:20:39;;;;;;;;;;;;;;;;;;;;;
2022/06/08 03:23:38;;;;;;;;;;;;;;;;;;;;;
2022/06/08 03:26:48;;;;;;;8.43;5.13;;;15.10;1.00;;;;;;6216544;23;20495;-82
2022/06/08 03:29:46;;;;;;;9.27;5.30;;;15.10;1.00;;;;;;6216290;23;20428;-82
2022/06/08 03:35:57;;;;;;;6.93;5.30;;;15.10;1.00;;;;;;6206265;23;20435;-82
2022/06/08 03:41:45;;;;;;;6.30;5.70;;;15.20;1.00;;;;;;6205994;23;20381;-82
2022/06/08 03:44:36;;;;;;;6.93;5.10;;;15.20;1.00;;;;;;6189944;23;20377;-83
2022/06/08 03:47:38;;;;;;;;;;;;;;;;;;;;;
2022/06/08 03:50:08;;;;;;;6.23;5.10;;;15.30;1.00;;;;;;6216922;23;20467;-81
2022/06/08 03:55:53;;;;;;;8.47;5.00;;;15.50;1.00;;;;;;6200777;23;20921;-81
2022/06/08 03:58:25;;;;;;;6.30;5.63;;;15.60;1.00;;;;;;6190627;23;20476;-82
2022/06/08 04:01:01;;;;;;;9.07;5.50;;;15.60;1.00;;;;;;6190538;23;20377;-81
2022/06/08 04:04:02;;;;;;;;;;;;;;;;;;;;;
2022/06/08 04:06:59;;;;;;;8.07;4.80;;;15.60;1.00;;;;;;6206205;23;20930;-83
2022/06/08 04:09:30;;;;;;;8.60;5.30;;;15.60;1.00;;;;;;6216456;23;20385;-83
2022/06/08 04:12:17;;;;;;;;;;;;;;;;;;;;;
2022/06/08 04:17:46;;;;;;;7.90;5.30;;;15.70;1.00;;;;;;6205694;23;20453;-83
2022/06/08 04:20:31;;;;;;;;;;;;;;;;;;;;;
2022/06/08 04:23:08;;;;;;;9.20;4.57;;;15.90;1.00;;;;;;6216284;23;20442;-82
2022/06/08 04:26:07;;;;;;;;;;;;;;;;;;;;;
2022/06/08 04:31:34;;;;;;;;;;;;;;;;;;;;;
2022/06/08 04:34:22;;;;;;;;;;;;;;;;;;;;;
2022/06/08 04:37:13;;;;;;;4.63;4.10;;;16.70;99.90;;;;;;6216104;23;20476;-82
2022/06/08 04:39:53;;;;;;;;;;;;;;;;;;;;;
2022/06/08 04:42:52;;;;;;;;;;;;;;;;;;;;;
2022/06/08 04:45:21;;;;;;;5.63;3.80;;;17.40;99.90;;;;;;6217124;23;20480;-81
2022/06/08 04:48:27;;;;;;;9.23;3.30;;;17.70;24.00;;;;;;6215057;23;20398;-82
2022/06/08 04:51:33;;;;;;;5.87;2.80;;;18.00;1.00;;;;;;6190131;23;20429;-86
2022/06/08 04:54:17;;;;;;;7.13;2.90;;;18.30;1.00;;;;;;6190182;23;20371;-82
2022/06/08 04:57:36;;;;;;;;;;;;;;;;;;;;;
2022/06/08 05:00:28;;;;;;;6.00;2.90;;;18.60;1.00;;;;;;6218657;23;20422;-81
2022/06/08 05:03:13;;;;;;;;;;;;;;;;;;;;;
2022/06/08 05:06:29;;;;;;;;;;;;;;;;;;;;;
2022/06/08 05:09:27;;;;;;;;;;;;;;;;;;;;;
2022/06/08 05:12:08;;;;;;;;;;;;;;;;;;;;;
2022/06/08 05:14:59;;;;;;;4.00;2.07;;;18.90;99.90;;;;;;6218816;23;20785;-82
2022/06/08 05:17:42;;;;;;;;;;;;;;;;;;;;;
2022/06/08 05:20:59;;;;;;;;;;;;;;;;;;;;;
2022/06/08 05:23:30;;;;;;;7.90;2.57;;;18.90;99.90;;;;;;6222958;23;20395;-81
2022/06/08 05:26:29;;;;;;;;;;;;;;;;;;;;;
2022/06/08 05:29:10;;;;;;;5.50;2.70;;;19.00;68.20;;;;;;6207072;23;20462;-80
2022/06/08 05:32:02;;;;;;;7.13;2.80;;;19.10;27.60;;;;;;6218752;23;20501;-81
2022/06/08 06:42:23;;;;;;;3.50;1.73;;;23.00;1.00;;;;;;6222851;22;20456;-85
2022/06/08 06:44:51;;;;;;;3.10;1.93;;;23.30;1.00;;;;;;6316370;22;20348;-85
2022/06/08 06:47:16;;;;;;;3.70;2.07;;;23.40;1.00;;;;;;6313160;22;20385;-86
2022/06/08 06:49:42;;;;;;;4.00;2.07;;;23.30;1.00;;;;;;6314896;22;20988;-85
2022/06/08 06:52:10;;;;;;;3.83;2.03;;;23.10;1.00;;;;;;6313293;22;20179;-83
2022/06/08 06:54:36;;;;;;;3.17;1.80;;;22.90;1.00;;;;;;6314049;22;20147;-85
2022/06/08 06:57:02;;;;;;;4.23;2.00;;;22.60;1.00;;;;;;6286258;22;20389;-85
2022/06/08 06:59:28;;;;;;;3.87;2.00;;;22.20;1.00;;;;;;6314134;22;20448;-86
2022/06/08 07:01:54;;;;;;;8.03;2.27;;;21.80;1.00;;;;;;6286026;22;20184;-84
2022/06/08 07:04:20;;;;;;;4.63;2.10;;;21.50;1.00;;;;;;6287938;22;20417;-85
2022/06/08 07:06:45;;;;;;;3.90;1.53;;;21.40;1.00;;;;;;6316154;22;20206;-84
2022/06/08 07:09:11;;;;;;;4.50;1.90;;;21.30;1.00;;;;;;6287567;22;20205;-84
2022/06/08 07:11:40;;;;;;;2.60;1.90;;;21.10;1.00;;;;;;6312384;22;20179;-84
2022/06/08 07:14:17;;;;;;;2.70;2.20;;;21.10;1.00;;;;;;6310986;22;20155;-84
2022/06/08 07:16:45;;;;;;;4.23;2.13;;;20.90;60.30;;;;;;6309819;22;20450;-83
2022/06/08 07:19:11;;;;;;;3.37;2.30;;;20.90;99.90;;;;;;6310771;22;20409;-84
2022/06/08 07:21:37;;;;;;;5.90;2.60;;;21.00;99.90;;;;;;6310159;22;20781;-84
2022/06/08 07:24:03;;;;;;;6.50;2.10;;;21.10;99.90;;;;;;6283595;22;20386;-84
2022/06/08 07:26:29;;;;;;;6.10;2.50;;;21.10;99.90;;;;;;6285535;22;20421;-84
2022/06/08 07:28:56;;;;;;;2.60;1.67;;;21.10;99.90;;;;;;6289736;22;20162;-85
2022/06/08 07:31:22;;;;;;;4.53;1.83;;;21.30;99.90;;;;;;6317772;22;20426;-85
2022/06/08 07:33:48;;;;;;;4.67;2.40;;;21.40;99.90;;;;;;6290820;22;20386;-85
2022/06/08 07:36:14;;;;;;;3.80;2.23;;;21.60;99.90;;;;;;6317935;22;20406;-85
2022/06/08 07:38:40;;;;;;;5.80;2.03;;;21.70;99.90;;;;;;6323673;22;20191;-85
2022/06/08 07:41:06;;;;;;;12.03;2.03;;;22.00;47.00;;;;;;6289943;22;20429;-84
2022/06/08 07:43:32;;;;;;;4.53;1.93;;;23.30;1.00;;;;;;6281743;22;20367;-85
2022/06/08 07:45:58;;;;;;;6.00;2.10;;;25.70;1.00;;;;;;6281596;22;20462;-84
2022/06/08 07:51:16;;;;;;;3.73;1.50;;;31.40;99.90;;;;;;6254299;22;20275;-86
2022/06/08 07:53:41;;;;;;;2.80;1.50;;;34.70;99.90;;;;;;6278200;22;20684;-86
2022/06/08 07:56:07;;;;;;;3.17;1.50;;;35.40;99.90;;;;;;6276635;22;20152;-86
2022/06/08 07:58:32;;;;;;;3.10;1.40;;;36.00;99.90;;;;;;6277519;22;20171;-86
2022/06/08 08:00:58;;;;;;;3.33;1.20;;;36.20;99.90;;;;;;6277956;22;20172;-86
2022/06/08 08:03:25;;;;;;;4.10;1.20;;;36.50;99.90;;;;;;6277820;22;20206;-86
2022/06/08 08:05:51;;;;;;;1.80;1.17;;;37.80;99.90;;;;;;6277189;22;20176;-86
2022/06/08 08:08:19;;;;;;;3.67;1.40;;;39.50;99.90;;;;;;6277502;22;20371;-85
2022/06/08 08:10:45;;;;;;;6.90;1.87;;;40.50;99.90;;;;;;6278834;22;20448;-86
2022/06/08 08:13:12;;;;;;;4.40;1.83;;;39.30;99.90;;;;;;6279622;22;20387;-85
2022/06/08 08:15:38;;;;;;;3.00;1.37;;;38.30;99.90;;;;;;6281405;22;20406;-86
2022/06/08 08:18:04;;;;;;;3.50;1.40;;;39.70;99.90;;;;;;6278468;22;20864;-85
2022/06/08 08:20:31;;;;;;;2.53;1.20;;;41.20;99.90;;;;;;6277618;22;20379;-86
2022/06/08 08:22:58;;;;;;;3.00;1.30;;;43.10;99.90;;;;;;6277380;22;20463;-86
2022/06/08 08:25:25;;;;;;;1.80;1.17;;;44.20;99.90;;;;;;6277000;22;20376;-85
2022/06/08 08:27:51;;;;;;;2.80;1.30;;;45.90;99.90;;;;;;6275057;22;20390;-86
2022/06/08 08:30:21;;;;;;;3.30;1.40;;;47.30;99.90;;;;;;6277421;22;20385;-85
2022/06/08 08:32:46;;;;;;;4.73;1.47;;;47.70;99.90;;;;;;6276646;22;20834;-86
2022/06/08 08:35:13;;;;;;;6.10;1.40;;;47.20;99.90;;;;;;6277181;22;20395;-88
2022/06/08 08:37:38;;;;;;;2.40;1.40;;;46.20;99.90;;;;;;6276314;22;20156;-86
2022/06/08 08:40:06;;;;;;;3.00;1.40;;;45.00;99.90;;;;;;6278514;22;20378;-85
2022/06/08 08:42:32;;;;;;;3.50;1.20;;;43.80;99.90;;;;;;6304715;22;20187;-85
2022/06/08 08:45:04;;;;;;;3.00;1.53;;;42.00;99.90;;;;;;6310065;22;20917;-85
2022/06/08 08:48:03;;;;;;;7.20;1.90;;;40.30;99.90;;;;;;6283785;22;20230;-84
2022/06/08 08:50:48;;;;;;;4.70;1.60;;;38.00;99.90;;;;;;6285947;22;20378;-84
2022/06/08 08:53:24;;;;;;;6.70;1.53;;;35.80;99.90;;;;;;6314212;22;20418;-84
2022/06/08 08:56:03;;;;;;;6.20;1.90;;;33.60;99.90;;;;;;6314620;22;20362;-83
2022/06/08 08:58:41;;;;;;;6.70;2.30;;;32.00;99.90;;;;;;6314887;22;20380;-83
2022/06/08 09:01:34;;;;;;;5.40;1.70;;;30.70;99.90;;;;;;6286794;22;20432;-84
2022/06/08 09:04:06;;;;;;;4.60;1.67;;;30.00;99.90;;;;;;6316600;22;20702;-84
2022/06/08 09:06:35;;;;;;;4.47;1.53;;;29.60;99.90;;;;;;6316161;22;20776;-85
2022/06/08 09:09:06;;;;;;;6.23;1.80;;;29.10;99.90;;;;;;6315835;22;20378;-84
2022/06/08 09:11:37;;;;;;;5.20;1.63;;;28.30;99.90;;;;;;6317136;22;20405;-84
2022/06/08 09:14:15;;;;;;;8.10;2.63;;;27.40;99.90;;;;;;6315913;22;20378;-84
2022/06/08 09:16:45;;;;;;;9.93;2.50;;;26.60;99.90;;;;;;6316168;22;20386;-84
2022/06/08 09:19:26;;;;;;;8.83;2.03;;;25.80;99.90;;;;;;6314916;22;20367;-84
2022/06/08 09:22:03;;;;;;;7.17;2.27;;;25.10;99.90;;;;;;6287122;22;20449;-84
2022/06/08 09:24:49;;;;;;;6.10;2.10;;;24.50;99.90;;;;;;6287156;22;20379;-84
2022/06/08 09:27:17;;;;;;;6.40;1.90;;;24.00;99.90;;;;;;6286632;22;20386;-83
2022/06/08 09:29:47;;;;;;;4.30;2.00;;;23.60;99.90;;;;;;6312331;22;20387;-82
2022/06/08 09:32:41;;;;;;;8.40;2.37;;;23.30;99.90;;;;;;6284897;22;20404;-83
2022/06/08 09:35:19;;;;;;;8.23;2.30;;;23.00;99.90;;;;;;6313316;22;20381;-85
2022/06/08 09:37:46;;;;;;;3.87;2.30;;;22.90;99.90;;;;;;6314734;22;20388;-84
2022/06/08 09:40:38;;;;;;;12.10;2.20;;;22.90;99.90;;;;;;6287425;22;20388;-84
2022/06/08 09:43:25;;;;;;;12.73;2.60;;;23.00;99.90;;;;;;6316692;22;20445;-84
2022/06/08 09:46:01;;;;;;;10.93;2.80;;;23.40;99.90;;;;;;6314716;22;20355;-84
2022/06/08 09:52:01;;;;;;;6.57;2.60;;;24.30;99.90;;;;;;6314661;22;20442;-83
2022/06/08 09:54:56;;;;;;;7.20;2.80;;;24.70;99.90;;;;;;6310680;22;20362;-85
2022/06/08 09:57:41;;;;;;;10.07;2.40;;;24.90;99.90;;;;;;6286464;22;20890;-84
2022/06/08 10:00:29;;;;;;;5.23;2.40;;;24.90;99.90;;;;;;6315457;22;20444;-85
2022/06/08 10:03:19;;;;;;;6.30;2.20;;;24.80;99.90;;;;;;6315711;22;20373;-85
2022/06/08 10:05:59;;;;;;;6.93;2.37;;;24.70;99.90;;;;;;6315134;22;20352;-83
2022/06/08 10:08:59;;;;;;;8.53;2.60;;;24.70;99.90;;;;;;6316020;22;20356;-84
2022/06/08 10:11:37;;;;;;;8.30;2.60;;;24.70;99.90;;;;;;6316376;22;20895;-84
2022/06/08 10:14:25;;;;;;;7.27;2.23;;;24.80;99.90;;;;;;6316842;22;20841;-85
2022/06/08 10:16:57;;;;;;;6.67;2.13;;;24.90;99.90;;;;;;6317476;22;20433;-84
2022/06/08 10:19:32;;;;;;;3.83;2.07;;;25.10;99.90;;;;;;6316459;22;20441;-86
2022/06/08 10:22:03;;;;;;;8.70;2.40;;;25.20;99.90;;;;;;6312724;22;20466;-85
2022/06/08 10:24:40;;;;;;;6.60;2.40;;;25.30;99.90;;;;;;6315250;22;20362;-85
2022/06/08 10:27:13;;;;;;;5.70;2.13;;;25.30;99.90;;;;;;6322793;22;20365;-85
2022/06/08 10:29:42;;;;;;;5.70;2.00;;;24.90;99.90;;;;;;6321286;22;20350;-85
2022/06/08 10:32:23;;;;;;;6.03;2.10;;;24.40;99.90;;;;;;6317307;22;20414;-84
2022/06/08 10:34:54;;;;;;;5.10;1.87;;;24.10;99.90;;;;;;6289975;22;20386;-84
2022/06/08 10:37:26;;;;;;;7.43;1.90;;;23.90;99.90;;;;;;6310521;22;20368;-84
2022/06/08 10:39:51;;;;;;;3.97;1.97;;;23.80;99.90;;;;;;6308542;22;20361;-83
2022/06/08 10:45:23;;;;;;;10.50;2.00;;;23.50;99.90;;;;;;6309475;22;20343;-85
2022/06/08 10:48:01;;;;;;;6.80;2.30;;;23.40;99.90;;;;;;6284146;22;20386;-85
2022/06/08 10:50:34;;;;;;;6.10;2.10;;;23.30;99.90;;;;;;6310146;22;20374;-84
2022/06/08 10:56:44;;;;;;;11.03;3.43;;;22.90;99.90;;;;;;6310742;22;20380;-85
2022/06/08 10:59:30;;;;;;;7.87;2.90;;;22.60;99.90;;;;;;6310997;22;20377;-84
2022/06/08 11:02:21;;;;;;;12.07;2.83;;;22.50;99.90;;;;;;6282893;22;20435;-82
2022/06/08 11:04:50;;;;;;;9.30;2.73;;;22.40;99.90;;;;;;6311646;22;20356;-85
2022/06/08 11:07:18;;;;;;;11.70;3.40;;;22.30;99.90;;;;;;6313565;22;20383;-85
2022/06/08 11:09:50;;;;;;;4.97;2.30;;;22.20;99.90;;;;;;6312615;22;20377;-84
2022/06/08 11:12:20;;;;;;;5.97;2.60;;;22.20;99.90;;;;;;6282790;22;20412;-84
2022/06/08 11:14:51;;;;;;;8.20;2.80;;;22.10;99.90;;;;;;6281785;22;20376;-84
2022/06/08 11:17:31;;;;;;;5.87;2.67;;;22.00;99.90;;;;;;6309143;22;20375;-83
2022/06/08 11:20:11;;;;;;;5.67;2.43;;;22.00;99.90;;;;;;6283049;22;20384;-84
2022/06/08 11:23:06;;;;;;;6.07;2.50;;;22.00;99.90;;;;;;6310950;22;20426;-84
2022/06/08 11:25:43;;;;;;;6.23;2.63;;;21.90;99.90;;;;;;6304022;22;20391;-85
2022/06/08 11:28:30;;;;;;;7.30;3.10;;;21.90;99.90;;;;;;6310658;22;20366;-84
2022/06/08 11:31:03;;;;;;;9.30;2.87;;;21.90;99.90;;;;;;6309727;22;20391;-84
2022/06/08 11:33:48;;;;;;;7.60;3.03;;;21.90;99.90;;;;;;6309211;22;20352;-83
2022/06/08 11:36:32;;;;;;;5.30;2.33;;;22.00;99.90;;;;;;6309178;22;20381;-83
2022/06/08 11:39:03;;;;;;;7.47;3.07;;;22.00;99.90;;;;;;6307766;22;20758;-83
2022/06/08 11:41:36;;;;;;;5.20;2.70;;;22.00;99.90;;;;;;6306103;22;20442;-83
2022/06/08 11:44:16;;;;;;;5.87;3.13;;;22.10;99.90;;;;;;6306459;22;20437;-82
2022/06/08 11:47:01;;;;;;;10.43;2.87;;;22.30;99.90;;;;;;6307672;22;20376;-83
2022/06/08 11:49:58;;;;;;;8.37;3.73;;;22.40;99.90;;;;;;6308113;22;20388;-82
2022/06/08 11:52:32;;;;;;;7.00;3.07;;;22.50;99.90;;;;;;6306663;22;20550;-83
2022/06/08 11:55:12;;;;;;;5.00;2.90;;;22.40;99.90;;;;;;6307095;22;20363;-83
2022/06/08 11:57:42;;;;;;;4.80;2.43;;;22.50;99.90;;;;;;6305933;22;20490;-82
2022/06/08 12:00:33;;;;;;;4.33;2.43;;;22.50;99.90;;;;;;6279454;22;20388;-81
2022/06/08 12:03:13;;;;;;;6.43;2.67;;;22.50;99.90;;;;;;6305990;22;20362;-82
2022/06/08 12:05:41;;;;;;;7.97;3.13;;;22.50;99.90;;;;;;6305507;22;20360;-83
2022/06/08 12:08:20;;;;;;;10.77;3.07;;;22.40;99.90;;;;;;6307943;22;20941;-82
2022/06/08 12:10:46;;;;;;;7.23;3.50;;;22.30;1.00;;;;;;6310021;22;20386;-83
2022/06/08 12:13:18;;;;;;;6.50;3.17;;;22.20;1.00;;;;;;6308603;22;20373;-83
2022/06/08 12:15:51;;;;;;;6.80;3.30;;;22.10;1.00;;;;;;6309377;22;20352;-82
2022/06/08 12:18:22;;;;;;;8.10;3.23;;;22.10;99.90;;;;;;6284594;22;20368;-83
2022/06/08 12:21:00;;;;;;;9.53;3.03;;;21.90;99.90;;;;;;6312016;22;20441;-83
2022/06/08 12:23:36;;;;;;;5.13;3.73;;;21.90;1.00;;;;;;6312610;22;20365;-84
2022/06/08 12:26:03;;;;;;;5.20;3.10;;;21.80;99.90;;;;;;6312300;22;20372;-84
2022/06/08 12:28:29;;;;;;;8.63;3.50;;;21.80;99.90;;;;;;6312704;22;20698;-83
2022/06/08 12:30:58;;;;;;;7.40;3.20;;;21.80;1.00;;;;;;6312461;22;20406;-84
2022/06/08 12:33:29;;;;;;;6.83;2.63;;;21.90;99.90;;;;;;6313085;22;20155;-84
2022/06/08 12:36:18;;;;;;;5.83;3.20;;;21.90;64.50;;;;;;6312389;22;20448;-84
2022/06/08 12:39:08;;;;;;;4.53;2.90;;;22.00;48.30;;;;;;6315589;22;20363;-83
2022/06/08 13:22:51;;;;;;;;;;;;;;;;;;;;;
2022/06/08 13:36:18;;;;;;;;;;;;;;;;;;;;;
2022/06/08 13:42:59;;;;;;;;;;;;;;;;;;;;;
2022/06/08 13:49:25;;;;;;;;;;;;;;;;;;;;;
2022/06/08 13:56:34;;;;;;;;;;;;;;;;;;;;;
2022/06/08 14:19:37;;;;;;;;;;;;;;;;;;;;;
2022/06/08 14:26:37;;;;;;;;;;;;;;;;;;;;;
2022/06/08 14:36:32;;;;;;;6.17;1.87;;;19.10;34.10;;;;;;6222986;22;20383;-81
2022/06/08 15:01:46;;;;;;;2.60;1.30;;;20.70;99.90;;;;;;6232947;22;20463;-82
2022/06/08 15:21:44;;;;;;;;;;;;;;;;;;;;;
2022/06/08 15:28:59;;;;;;;;;;;;;;;;;;;;;
2022/06/08 15:59:40;;;;;;;1.90;1.40;;;19.70;99.90;;;;;;6263673;22;20382;-83
2022/06/08 16:02:08;;;;;;;1.70;1.40;;;19.70;1.00;;;;;;6276951;22;20561;-82
2022/06/08 16:04:42;;;;;;;3.53;1.70;;;19.80;99.90;;;;;;6251372;22;20383;-83
2022/06/08 16:07:08;;;;;;;1.80;1.57;;;19.90;99.90;;;;;;6249952;22;20371;-82
2022/06/08 16:09:34;;;;;;;3.40;2.63;;;19.90;99.90;;;;;;6251377;22;20389;-82
2022/06/08 16:12:00;;;;;;;2.83;1.53;;;19.90;99.90;;;;;;6278594;22;20426;-83
2022/06/08 16:14:26;;;;;;;2.80;2.03;;;19.90;1.00;;;;;;6251967;22;20868;-81
2022/06/08 16:17:18;;;;;;;;;;;;;;;;;;;;;
2022/06/08 16:19:47;;;;;;;2.47;1.97;;;19.80;1.00;;;;;;6279378;22;20398;-83
2022/06/08 16:22:16;;;;;;;2.63;2.00;;;19.70;1.00;;;;;;6252404;22;20433;-83
2022/06/08 16:24:46;;;;;;;2.10;1.90;;;19.70;1.00;;;;;;6251465;22;20419;-81
2022/06/08 16:27:14;;;;;;;2.40;2.10;;;19.60;99.90;;;;;;6251936;22;20389;-82
2022/06/08 16:29:40;;;;;;;2.67;2.03;;;19.60;1.00;;;;;;6279053;22;20363;-83
2022/06/08 16:32:06;;;;;;;4.87;2.43;;;19.50;1.00;;;;;;6251839;22;20508;-84
2022/06/08 16:34:34;;;;;;;6.80;2.57;;;19.40;99.90;;;;;;6277231;22;20473;-83
2022/06/08 16:36:59;;;;;;;2.27;1.80;;;19.30;1.00;;;;;;6277813;22;20484;-83
2022/06/08 16:39:26;;;;;;;3.97;2.27;;;19.20;99.90;;;;;;6280032;22;20386;-82
2022/06/08 16:41:52;;;;;;;7.10;2.20;;;19.10;99.90;;;;;;6278400;22;20198;-82
2022/06/08 16:44:21;;;;;;;2.80;2.23;;;19.00;99.90;;;;;;6279756;22;20376;-83
2022/06/08 16:46:48;;;;;;;5.70;2.63;;;18.90;1.00;;;;;;6279755;22;20377;-83
2022/06/08 16:49:14;;;;;;;2.80;2.50;;;18.90;1.00;;;;;;6251272;22;20919;-82
2022/06/08 16:51:39;;;;;;;3.50;2.77;;;18.80;1.00;;;;;;6252310;22;20386;-83
2022/06/08 16:54:05;;;;;;;4.03;3.13;;;18.80;58.40;;;;;;6252301;22;20161;-82
2022/06/08 17:01:58;;;;;;;4.33;3.10;;;18.80;1.00;;;;;;6281415;22;20507;-82
2022/06/08 17:04:24;;;;;;;4.50;3.50;;;18.80;1.00;;;;;;6280950;22;21198;-81
2022/06/08 17:37:22;;;;;;;6.87;4.00;;;18.40;99.90;;;;;;6272860;22;20382;-83
2022/06/08 17:40:27;;;;;;;;;;;;;;;;;;;;;
2022/06/08 17:43:09;;;;;;;;;;;;;;;;;;;;;
2022/06/08 17:45:40;;;;;;;12.10;4.80;;;18.20;1.00;;;;;;6279710;22;20435;-82
2022/06/08 17:51:45;;;;;;;;;;;;;;;;;;;;;
2022/06/08 17:54:13;;;;;;;7.20;4.07;;;18.00;99.90;;;;;;6266641;22;20460;-83
2022/06/08 18:00:05;;;;;;;;;;;;;;;;;;;;;
2022/06/08 18:02:31;;;;;;;6.80;3.87;;;18.00;99.90;;;;;;6285000;22;20468;-83
2022/06/08 18:05:17;;;;;;;6.97;3.60;;;18.00;99.90;;;;;;6279790;22;20390;-82
2022/06/08 18:07:52;;;;;;;11.43;4.10;;;18.10;99.90;;;;;;6278513;22;20380;-85
2022/06/08 18:11:57;;;;;;;11.20;4.53;;;18.00;99.90;;;;;;6277798;22;20802;-83
2022/06/08 18:14:13;;;;;;;;;;;;;;;;;;;;;
2022/06/08 18:17:10;;;;;;;7.07;3.63;;;17.90;99.90;;;;;;6279329;22;20427;-83
2022/06/08 18:20:15;;;;;;;;;;;;;;;;;;;;;
2022/06/08 18:23:33;;;;;;;;;;;;;;;;;;;;;
2022/06/08 18:26:09;;;;;;;10.33;4.43;;;17.60;99.90;;;;;;6279921;22;20443;-84
2022/06/08 18:29:28;;;;;;;9.93;5.17;;;17.50;99.90;;;;;;6277372;22;20727;-83
2022/06/08 18:31:50;;;;;;;10.50;4.10;;;17.40;1.00;;;;;;6258252;22;20441;-83
2022/06/08 18:35:08;;;;;;;14.83;4.63;;;17.40;1.00;;;;;;6262950;22;20422;-83
2022/06/08 18:42:22;;;;;;;10.33;4.60;;;17.40;1.00;;;;;;6125844;23;20428;-82
2022/06/08 18:49:04;;;;;;;;;;;;;;;;;;;;;
2022/06/08 18:59:06;;;;;;;9.07;4.30;;;17.30;1.00;;;;;;6262843;22;20401;-82
2022/06/08 19:20:52;;;;;;;13.07;4.83;;;16.90;1.00;;;;;;6272932;22;20391;-82
2022/06/08 19:23:23;;;;;;;11.50;4.40;;;16.80;1.00;;;;;;6276344;22;20399;-83
2022/06/08 19:26:15;;;;;;;11.40;4.00;;;16.80;1.00;;;;;;6278635;22;20434;-82
2022/06/08 19:28:38;;;;;;;17.67;5.53;;;16.70;1.00;;;;;;6276705;22;20443;-82
2022/06/08 19:31:16;;;;;;;10.73;5.00;;;16.70;1.00;;;;;;6279172;22;20371;-82
2022/06/08 19:33:45;;;;;;;10.30;3.67;;;16.60;1.00;;;;;;6278745;22;20401;-82
2022/06/08 19:36:14;;;;;;;8.10;4.23;;;16.60;1.00;;;;;;6277791;22;20390;-82
2022/06/08 19:38:40;;;;;;;8.47;4.40;;;16.60;1.00;;;;;;6276523;22;20389;-82
2022/06/08 19:41:12;;;;;;;12.23;4.47;;;16.60;1.00;;;;;;6278697;22;20914;-82
2022/06/08 19:43:44;;;;;;;11.27;5.07;;;16.50;1.00;;;;;;6277570;22;20421;-83
2022/06/08 19:46:10;;;;;;;13.20;5.10;;;16.50;1.00;;;;;;6277146;22;20382;-82
2022/06/08 19:48:38;;;;;;;16.50;5.37;;;16.40;1.00;;;;;;6276496;22;20386;-82
2022/06/08 19:51:08;;;;;;;14.03;7.00;;;16.40;1.00;;;;;;6277242;22;20400;-83
2022/06/08 19:53:38;;;;;;;11.10;5.73;;;16.40;1.00;;;;;;6276999;22;20466;-82
2022/06/08 19:56:23;;;;;;;8.27;5.93;;;16.30;1.00;;;;;;6277289;22;20448;-82
2022/06/08 19:58:48;;;;;;;22.23;8.50;;;16.30;1.00;;;;;;6250144;22;20394;-82
2022/06/08 20:01:23;;;;;;;15.50;9.10;;;16.20;1.00;;;;;;6277483;22;20465;-82
2022/06/08 20:03:50;;;;;;;12.67;7.30;;;16.20;1.00;;;;;;6251479;22;20181;-82
2022/06/08 20:06:40;;;;;;;11.13;6.50;;;16.10;1.00;;;;;;6278070;22;20370;-82
2022/06/08 20:09:09;;;;;;;15.57;7.30;;;16.10;1.00;;;;;;6277718;22;20759;-82
2022/06/08 20:11:34;;;;;;;10.40;6.60;;;16.10;1.00;;;;;;6277873;22;20370;-82
2022/06/08 20:14:02;;;;;;;19.23;6.80;;;16.00;1.00;;;;;;6251171;22;20397;-81
2022/06/08 20:16:28;;;;;;;10.90;6.20;;;16.00;1.00;;;;;;6250604;22;20158;-82
2022/06/08 20:18:56;;;;;;;20.80;8.07;;;15.90;1.00;;;;;;6251457;22;20430;-83
2022/06/08 20:21:21;;;;;;;17.73;8.00;;;15.90;1.00;;;;;;6278809;22;20201;-82
2022/06/08 20:23:54;;;;;;;14.37;7.30;;;15.90;1.00;;;;;;6278399;22;20394;-82
2022/06/08 20:26:27;;;;;;;17.67;8.07;;;15.80;1.00;;;;;;6277900;22;20198;-82
2022/06/08 20:28:57;;;;;;;14.23;7.10;;;15.80;1.00;;;;;;6253171;22;20855;-82
2022/06/08 20:31:50;;;;;;;18.77;8.03;;;15.70;1.00;;;;;;6281220;22;20459;-82
2022/06/08 20:44:30;;;;;;;18.93;6.20;;;15.60;1.00;;;;;;6263168;22;20402;-82
2022/06/08 20:46:58;;;;;;;11.17;5.97;;;15.60;1.00;;;;;;6250934;22;20387;-82
2022/06/08 20:49:26;;;;;;;16.40;6.43;;;15.60;1.00;;;;;;6278625;22;20461;-82
2022/06/08 20:51:54;;;;;;;14.93;6.60;;;15.60;1.00;;;;;;6251143;22;20401;-83
2022/06/08 20:54:33;;;;;;;9.30;5.23;;;15.50;1.00;;;;;;6252963;22;20436;-83
2022/06/08 20:57:02;;;;;;;9.27;5.20;;;15.50;1.00;;;;;;6267201;22;20907;-83
2022/06/08 20:59:29;;;;;;;12.63;5.50;;;15.50;1.00;;;;;;6279107;22;20435;-83
2022/06/08 21:02:02;;;;;;;17.50;6.10;;;15.50;1.00;;;;;;6280668;22;20434;-84
2022/06/08 21:04:32;;;;;;;9.07;5.40;;;15.40;1.00;;;;;;6280013;22;20380;-83
2022/06/08 21:07:00;;;;;;;10.83;5.77;;;15.40;1.00;;;;;;6283246;22;20367;-83
2022/06/08 21:09:27;;;;;;;18.23;6.30;;;15.40;1.00;;;;;;6286391;22;20389;-83
2022/06/08 21:11:53;;;;;;;15.87;6.00;;;15.40;1.00;;;;;;6285051;22;20397;-83
2022/06/08 21:14:21;;;;;;;9.77;5.00;;;15.40;1.00;;;;;;6279439;22;20436;-83
2022/06/08 21:16:57;;;;;;;10.33;5.17;;;15.30;1.00;;;;;;6278178;22;20430;-83
2022/06/08 21:19:28;;;;;;;16.43;5.73;;;15.30;1.00;;;;;;6280106;22;20368;-83
2022/06/08 21:21:55;;;;;;;16.33;6.20;;;15.30;1.00;;;;;;6278562;22;20434;-83
2022/06/08 21:24:20;;;;;;;14.90;6.00;;;15.30;1.00;;;;;;6279835;22;20743;-83
2022/06/08 21:26:58;;;;;;;;;;;;;;;;;;;;;
2022/06/08 21:32:41;;;;;;;8.67;4.50;;;15.20;1.00;;;;;;6264542;22;20405;-83
2022/06/08 21:35:29;;;;;;;;;;;;;;;;;;;;;
2022/06/08 21:38:13;;;;;;;;;;;;;;;;;;;;;
2022/06/08 21:41:14;;;;;;;;;;;;;;;;;;;;;
2022/06/08 21:43:48;;;;;;;13.00;4.17;;;15.20;1.00;;;;;;6281991;22;20799;-83
2022/06/08 21:47:02;;;;;;;;;;;;;;;;;;;;;
2022/06/08 21:50:10;;;;;;;;;;;;;;;;;;;;;
2022/06/08 21:59:11;;;;;;;7.90;4.10;;;15.10;1.00;;;;;;6278995;22;20393;-83
2022/06/08 22:02:07;;;;;;;;;;;;;;;;;;;;;
2022/06/08 22:04:56;;;;;;;;;;;;;;;;;;;;;
2022/06/08 22:10:58;;;;;;;10.97;3.63;;;15.10;1.00;;;;;;6260243;22;20442;-82
2022/06/08 22:13:27;;;;;;;5.50;3.23;;;15.10;1.00;;;;;;6268051;22;20408;-83
2022/06/08 22:15:54;;;;;;;13.00;4.37;;;15.10;1.00;;;;;;6251063;22;20429;-83